Time;durP1;ratioP1;P1;durP2;ratioP2;P2;SDS_P1;SDS_P2;PMS_P1;PMS_P2;Temp;Humidity;BMP_temperature;BMP_pressure;BME280_temperature;BME280_humidity;BME280_pressure;Samples;Min_cycle;Max_cycle;Signal;HPM_P1;HPM_P2
2022/05/11 00:04:59;;;;;;;7.95;4.07;;;;;;;;;;10332610;28;20500;-75
2022/05/11 00:10:02;;;;;;;8.57;3.80;;;;;;;;;;10361631;28;20034;-75
2022/05/11 00:15:05;;;;;;;;;;;;;;;;;;10361654;28;20034;-75
2022/05/11 00:20:11;;;;;;;6.55;4.03;;;;;;;;;;10344222;28;20459;-75
2022/05/11 00:25:15;;;;;;;8.18;4.10;;;;;;;;;;10343268;28;20510;-75
2022/05/11 00:30:18;;;;;;;5.80;3.33;;;;;;;;;;10346577;28;20046;-77
2022/05/11 00:35:22;;;;;;;5.67;2.97;;;;;;;;;;10354973;28;20171;-77
2022/05/11 00:40:26;;;;;;;6.68;3.50;;;;;;;;;;10364685;28;20042;-75
2022/05/11 00:45:28;;;;;;;6.45;2.85;;;;;;;;;;10364166;28;20187;-76
2022/05/11 00:50:35;;;;;;;11.32;4.40;;;;;;;;;;10367556;28;20041;-77
2022/05/11 00:55:40;;;;;;;8.32;4.28;;;;;;;;;;10344215;28;20536;-75
2022/05/11 01:00:43;;;;;;;7.18;3.83;;;;;;;;;;10353631;28;20042;-77
2022/05/11 01:05:48;;;;;;;7.93;4.45;;;;;;;;;;10349837;28;20065;-76
2022/05/11 01:10:53;;;;;;;9.95;4.00;;;;;;;;;;10352712;28;20042;-76
2022/05/11 01:16:06;;;;;;;8.55;4.70;;;;;;;;;;10348533;28;20105;-76
2022/05/11 01:21:10;;;;;;;7.03;4.03;;;;;;;;;;10347946;28;20064;-76
2022/05/11 01:26:18;;;;;;;8.43;4.30;;;;;;;;;;10349698;28;20296;-76
2022/05/11 01:31:25;;;;;;;5.38;3.17;;;;;;;;;;10360787;28;20089;-74
2022/05/11 01:36:30;;;;;;;8.23;4.20;;;;;;;;;;10369533;28;20642;-75
2022/05/11 01:41:35;;;;;;;8.52;4.78;;;;;;;;;;10355256;28;20359;-76
2022/05/11 01:46:39;;;;;;;12.15;4.72;;;;;;;;;;10357408;28;20057;-73
2022/05/11 01:51:42;;;;;;;7.68;4.75;;;;;;;;;;10360720;28;20074;-76
2022/05/11 01:56:46;;;;;;;7.20;4.00;;;;;;;;;;10337505;28;20050;-76
2022/05/11 02:01:49;;;;;;;6.70;3.25;;;;;;;;;;10339471;28;20125;-76
2022/05/11 02:12:14;;;;;;;9.20;3.97;;;;;;;;;;10365555;28;20493;-79
2022/05/11 02:17:20;;;;;;;7.60;4.20;;;;;;;;;;10358811;28;20121;-77
2022/05/11 02:22:22;;;;;;;6.35;3.97;;;;;;;;;;10358530;28;20483;-77
2022/05/11 02:27:27;;;;;;;7.93;4.35;;;;;;;;;;10367777;28;20042;-77
2022/05/11 02:32:29;;;;;;;7.18;3.75;;;;;;;;;;10363040;28;20211;-76
2022/05/11 02:37:33;;;;;;;6.83;3.13;;;;;;;;;;10362452;28;20053;-74
2022/05/11 02:42:37;;;;;;;8.88;3.42;;;;;;;;;;10337824;28;20065;-76
2022/05/11 02:47:41;;;;;;;5.88;3.72;;;;;;;;;;10358127;28;20547;-76
2022/05/11 02:52:44;;;;;;;;;;;;;;;;;;10357737;28;20360;-76
2022/05/11 02:57:48;;;;;;;6.75;3.67;;;;;;;;;;10361676;28;20599;-76
2022/05/11 03:02:51;;;;;;;5.50;2.65;;;;;;;;;;10362682;28;20050;-76
2022/05/11 03:07:54;;;;;;;5.17;1.83;;;;;;;;;;10354192;28;20450;-77
2022/05/11 03:12:58;;;;;;;5.75;3.85;;;;;;;;;;10363760;28;20557;-76
2022/05/11 03:18:01;;;;;;;6.30;3.92;;;;;;;;;;10356225;28;20046;-76
2022/05/11 03:23:04;;;;;;;8.27;3.63;;;;;;;;;;10359636;28;20679;-76
2022/05/11 03:28:08;;;;;;;7.13;3.60;;;;;;;;;;10352454;28;20034;-76
2022/05/11 03:38:31;;;;;;;6.00;3.05;;;;;;;;;;10356904;28;20038;-75
2022/05/11 03:43:35;;;;;;;6.93;3.40;;;;;;;;;;10359779;28;20073;-75
2022/05/11 03:48:38;;;;;;;5.88;3.20;;;;;;;;;;10339868;28;20082;-75
2022/05/11 03:53:41;;;;;;;5.73;2.60;;;;;;;;;;10356886;28;20044;-76
2022/05/11 03:58:47;;;;;;;6.65;3.10;;;;;;;;;;10338721;28;20133;-76
2022/05/11 04:03:50;;;;;;;6.45;3.38;;;;;;;;;;10353445;28;20068;-74
2022/05/11 04:08:53;;;;;;;6.70;2.93;;;;;;;;;;10359741;28;20045;-75
2022/05/11 04:13:57;;;;;;;6.60;3.05;;;;;;;;;;10347545;28;20482;-74
2022/05/11 04:19:01;;;;;;;7.03;3.60;;;;;;;;;;10359997;28;20031;-74
2022/05/11 04:24:04;;;;;;;5.82;3.05;;;;;;;;;;10357362;28;20037;-76
2022/05/11 04:29:09;;;;;;;6.03;3.15;;;;;;;;;;10359078;28;20045;-77
2022/05/11 04:34:12;;;;;;;8.20;3.25;;;;;;;;;;10339731;28;20057;-73
2022/05/11 04:39:15;;;;;;;;;;;;;;;;;;10360630;28;20034;-76
2022/05/11 04:44:19;;;;;;;4.40;1.95;;;;;;;;;;10346977;28;20385;-75
2022/05/11 04:49:23;;;;;;;6.00;2.65;;;;;;;;;;10335790;28;20801;-75
2022/05/11 04:54:26;;;;;;;7.70;2.95;;;;;;;;;;10343151;28;20097;-76
2022/05/11 04:59:32;;;;;;;7.07;3.33;;;;;;;;;;10362621;28;20047;-75
2022/05/11 05:04:34;;;;;;;11.55;4.07;;;;;;;;;;10333813;28;20077;-75
2022/05/11 05:09:37;;;;;;;6.78;2.25;;;;;;;;;;10332138;28;20073;-77
2022/05/11 05:14:42;;;;;;;4.67;2.57;;;;;;;;;;10342452;28;20129;-76
2022/05/11 05:19:51;;;;;;;2.15;1.25;;;;;;;;;;10357309;28;20041;-75
2022/05/11 05:24:54;;;;;;;4.77;1.97;;;;;;;;;;10363172;28;20398;-76
2022/05/11 05:35:20;;;;;;;3.05;1.92;;;;;;;;;;10363618;28;20445;-73
2022/05/11 05:40:23;;;;;;;4.40;2.63;;;;;;;;;;10360452;28;20045;-75
2022/05/11 05:45:28;;;;;;;5.57;2.33;;;;;;;;;;10366367;28;20287;-77
2022/05/11 05:50:30;;;;;;;7.70;3.42;;;;;;;;;;10343394;28;20133;-75
2022/05/11 05:55:33;;;;;;;4.15;2.63;;;;;;;;;;10357367;28;20065;-77
2022/05/11 06:00:37;;;;;;;5.00;2.77;;;;;;;;;;10340905;28;20154;-74
2022/05/11 06:05:41;;;;;;;5.57;3.22;;;;;;;;;;10357970;28;20470;-75
2022/05/11 06:10:44;;;;;;;4.50;2.60;;;;;;;;;;10355210;28;20046;-74
2022/05/11 06:15:49;;;;;;;6.35;3.03;;;;;;;;;;10341101;28;20300;-76
2022/05/11 06:20:52;;;;;;;5.30;2.70;;;;;;;;;;10354963;28;20042;-78
2022/05/11 06:25:55;;;;;;;4.55;2.40;;;;;;;;;;10363739;28;20517;-76
2022/05/11 06:31:00;;;;;;;5.88;2.75;;;;;;;;;;10346737;28;20075;-76
2022/05/11 06:36:04;;;;;;;3.53;1.95;;;;;;;;;;10361035;28;20084;-77
2022/05/11 06:41:10;;;;;;;5.30;1.92;;;;;;;;;;10338498;28;20057;-77
2022/05/11 06:46:15;;;;;;;5.82;3.20;;;;;;;;;;10350144;28;20044;-76
2022/05/11 06:51:18;;;;;;;2.25;1.85;;;;;;;;;;10339962;28;20125;-76
2022/05/11 07:01:43;;;;;;;2.72;1.63;;;;;;;;;;10359642;28;20036;-74
2022/05/11 07:06:46;;;;;;;4.50;2.75;;;;;;;;;;10360938;28;20071;-75
2022/05/11 07:17:10;;;;;;;5.90;2.85;;;;;;;;;;10339727;28;20514;-76
2022/05/11 07:22:13;;;;;;;4.88;2.80;;;;;;;;;;10351002;28;20026;-74
2022/05/11 07:27:18;;;;;;;4.60;2.80;;;;;;;;;;10338029;28;20390;-77
2022/05/11 07:32:23;;;;;;;5.35;3.17;;;;;;;;;;10337363;28;20183;-76
2022/05/11 07:37:26;;;;;;;4.53;2.80;;;;;;;;;;10350989;28;20058;-74
2022/05/11 07:42:30;;;;;;;3.38;2.70;;;;;;;;;;10368255;28;20038;-77
2022/05/11 07:47:35;;;;;;;6.32;2.70;;;;;;;;;;10367570;28;20037;-78
2022/05/11 07:52:37;;;;;;;5.15;3.10;;;;;;;;;;10355094;28;20069;-72
2022/05/11 08:03:02;;;;;;;6.20;3.50;;;;;;;;;;10353156;28;20054;-70
2022/05/11 08:08:06;;;;;;;4.03;3.28;;;;;;;;;;10358676;28;20119;-71
2022/05/11 08:13:09;;;;;;;7.00;3.70;;;;;;;;;;10360171;28;20241;-73
2022/05/11 08:18:15;;;;;;;4.75;3.38;;;;;;;;;;10369511;28;20037;-74
2022/05/11 08:23:18;;;;;;;7.50;3.67;;;;;;;;;;10377217;28;20038;-73
2022/05/11 08:28:22;;;;;;;3.97;3.58;;;;;;;;;;10370890;28;20038;-74
2022/05/11 08:33:27;;;;;;;5.35;3.50;;;;;;;;;;10363757;28;20041;-73
2022/05/11 08:38:50;;;;;;;5.60;3.40;;;;;;;;;;10350691;28;20051;-74
2022/05/11 08:43:54;;;;;;;3.22;2.92;;;;;;;;;;10364673;28;20033;-73
2022/05/11 08:49:04;;;;;;;7.30;3.72;;;;;;;;;;10374376;28;20125;-72
2022/05/11 08:54:13;;;;;;;5.03;4.05;;;;;;;;;;10362553;28;20700;-75
2022/05/11 08:59:19;;;;;;;4.78;3.50;;;;;;;;;;10367644;28;20072;-74
2022/05/11 09:04:26;;;;;;;5.20;3.50;;;;;;;;;;10364659;28;20446;-73
2022/05/11 09:09:29;;;;;;;7.03;3.80;;;;;;;;;;10340465;28;20140;-72
2022/05/11 09:14:34;;;;;;;5.10;4.00;;;;;;;;;;10333632;28;20048;-71
2022/05/11 09:19:38;;;;;;;4.20;3.80;;;;;;;;;;10334443;28;20199;-74
2022/05/11 09:24:45;;;;;;;7.78;3.60;;;;;;;;;;10356141;28;20511;-74
2022/05/11 09:29:55;;;;;;;8.63;3.80;;;;;;;;;;10360014;28;20085;-74
2022/05/11 09:35:16;;;;;;;6.65;3.65;;;;;;;;;;10345104;28;20077;-75
2022/05/11 09:40:21;;;;;;;6.03;3.90;;;;;;;;;;10360881;28;20123;-74
2022/05/11 09:45:38;;;;;;;6.05;3.55;;;;;;;;;;10355362;28;20034;-74
2022/05/11 09:50:43;;;;;;;6.03;3.50;;;;;;;;;;10363066;28;20085;-71
2022/05/11 09:55:46;;;;;;;5.60;3.10;;;;;;;;;;10354510;28;20268;-70
2022/05/11 10:00:49;;;;;;;4.80;3.10;;;;;;;;;;10341704;28;20488;-72
2022/05/11 10:05:53;;;;;;;4.45;2.60;;;;;;;;;;10368992;28;20041;-73
2022/05/11 10:11:00;;;;;;;5.75;2.78;;;;;;;;;;10356721;28;20359;-75
2022/05/11 10:27:01;;;;;;;5.50;3.20;;;;;;;;;;10347118;28;20049;-76
2022/05/11 10:32:08;;;;;;;3.47;3.00;;;;;;;;;;10345072;28;20045;-75
2022/05/11 10:37:19;;;;;;;4.22;3.00;;;;;;;;;;10357317;28;20418;-75
2022/05/11 10:42:22;;;;;;;;;;;;;;;;;;10366730;28;20113;-75
2022/05/11 10:47:38;;;;;;;3.17;2.75;;;;;;;;;;10366682;28;19948;-75
2022/05/11 10:52:55;;;;;;;4.85;2.75;;;;;;;;;;10362517;28;20398;-74
2022/05/11 10:58:09;;;;;;;7.25;2.95;;;;;;;;;;10362985;28;20135;-75
2022/05/11 11:03:28;;;;;;;4.20;3.08;;;;;;;;;;10369026;28;20071;-76
2022/05/11 11:08:33;;;;;;;4.30;2.70;;;;;;;;;;10362558;28;20129;-73
2022/05/11 11:13:42;;;;;;;5.07;3.03;;;;;;;;;;10345440;28;20087;-75
2022/05/11 11:18:46;;;;;;;4.10;2.40;;;;;;;;;;10348922;28;20097;-77
2022/05/11 11:24:10;;;;;;;7.57;4.55;;;;;;;;;;10355727;28;20088;-72
2022/05/11 11:29:19;;;;;;;2.58;2.38;;;;;;;;;;10365915;28;20418;-73
2022/05/11 11:34:23;;;;;;;3.45;2.83;;;;;;;;;;10363014;28;20034;-74
2022/05/11 11:39:44;;;;;;;2.97;2.47;;;;;;;;;;10347412;28;20045;-74
2022/05/11 11:44:48;;;;;;;7.68;2.45;;;;;;;;;;10362870;28;20203;-74
2022/05/11 11:49:51;;;;;;;5.80;2.75;;;;;;;;;;10368156;28;20053;-74
2022/05/11 11:55:00;;;;;;;3.45;2.67;;;;;;;;;;10352811;28;20065;-76
2022/05/11 12:00:06;;;;;;;3.28;2.00;;;;;;;;;;10359118;28;20049;-77
2022/05/11 12:05:10;;;;;;;3.38;2.67;;;;;;;;;;10359972;28;20393;-77
2022/05/11 12:15:38;;;;;;;2.47;2.17;;;;;;;;;;10350293;28;20128;-77
2022/05/11 12:20:41;;;;;;;2.47;2.10;;;;;;;;;;10333764;28;20133;-76
2022/05/11 12:25:53;;;;;;;3.28;2.30;;;;;;;;;;10355780;28;20034;-76
2022/05/11 12:30:58;;;;;;;3.30;2.30;;;;;;;;;;10367156;28;20034;-77
2022/05/11 12:36:01;;;;;;;4.68;2.25;;;;;;;;;;10342825;28;20054;-77
2022/05/11 12:41:08;;;;;;;4.45;2.13;;;;;;;;;;10352631;28;20038;-74
2022/05/11 12:46:15;;;;;;;4.35;2.15;;;;;;;;;;10361748;28;20053;-77
2022/05/11 12:51:18;;;;;;;4.15;2.03;;;;;;;;;;10340800;28;20074;-75
2022/05/11 12:56:23;;;;;;;3.83;2.35;;;;;;;;;;10360919;28;20088;-77
2022/05/11 13:01:28;;;;;;;4.63;2.33;;;;;;;;;;10346380;28;20077;-78
2022/05/11 13:06:34;;;;;;;3.35;1.73;;;;;;;;;;10356091;28;20095;-76
2022/05/11 13:11:37;;;;;;;4.10;1.88;;;;;;;;;;10340761;28;20168;-76
2022/05/11 13:16:46;;;;;;;2.78;2.20;;;;;;;;;;10342528;28;20058;-75
2022/05/11 13:21:49;;;;;;;5.00;2.50;;;;;;;;;;10339632;28;20455;-75
2022/05/11 13:26:52;;;;;;;5.00;2.58;;;;;;;;;;10356574;28;20030;-76
2022/05/11 13:32:09;;;;;;;3.17;1.70;;;;;;;;;;10362622;28;20494;-74
2022/05/11 13:37:21;;;;;;;5.53;2.40;;;;;;;;;;10355128;28;20037;-76
2022/05/11 13:42:25;;;;;;;2.30;2.08;;;;;;;;;;10362347;28;20053;-76
2022/05/11 13:52:53;;;;;;;5.28;1.95;;;;;;;;;;10357381;28;20170;-77
2022/05/11 13:57:57;;;;;;;5.45;2.13;;;;;;;;;;10362909;28;20034;-76
2022/05/11 14:03:02;;;;;;;4.70;2.20;;;;;;;;;;10335583;28;20509;-78
2022/05/11 14:08:05;;;;;;;3.40;2.15;;;;;;;;;;10340861;28;20072;-77
2022/05/11 14:13:09;;;;;;;5.25;2.30;;;;;;;;;;10338708;28;20057;-76
2022/05/11 14:18:16;;;;;;;3.53;2.08;;;;;;;;;;10355143;28;20324;-77
2022/05/11 14:23:19;;;;;;;4.20;2.15;;;;;;;;;;10339968;28;20054;-75
2022/05/11 14:28:22;;;;;;;2.53;1.90;;;;;;;;;;10337813;28;20049;-77
2022/05/11 14:33:27;;;;;;;3.25;2.53;;;;;;;;;;10334375;28;20121;-76
2022/05/11 14:38:30;;;;;;;2.53;1.90;;;;;;;;;;10355667;28;20060;-76
2022/05/11 14:43:33;;;;;;;3.85;2.20;;;;;;;;;;10354397;28;20041;-76
2022/05/11 14:48:37;;;;;;;6.13;2.28;;;;;;;;;;10336626;28;20609;-77
2022/05/11 14:53:40;;;;;;;3.22;1.40;;;;;;;;;;10352260;28;20458;-75
2022/05/11 15:04:07;;;;;;;5.95;2.22;;;;;;;;;;10354320;28;20050;-76
2022/05/11 15:09:10;;;;;;;7.32;2.15;;;;;;;;;;10335735;28;20579;-75
2022/05/11 15:14:13;;;;;;;2.28;1.90;;;;;;;;;;10362951;28;20133;-78
2022/05/11 15:19:19;;;;;;;3.10;1.83;;;;;;;;;;10334720;28;20042;-77
2022/05/11 15:24:26;;;;;;;4.82;1.70;;;;;;;;;;10339539;28;20382;-79
2022/05/11 15:29:29;;;;;;;5.80;2.08;;;;;;;;;;10359823;28;20042;-76
2022/05/11 15:34:33;;;;;;;5.93;2.08;;;;;;;;;;10356501;28;20038;-74
2022/05/11 15:39:36;;;;;;;1.55;1.38;;;;;;;;;;10347141;28;20045;-77
2022/05/11 15:44:39;;;;;;;4.72;1.90;;;;;;;;;;10341625;28;20038;-74
2022/05/11 15:49:44;;;;;;;4.15;1.40;;;;;;;;;;10352422;28;20046;-76
2022/05/11 15:54:47;;;;;;;2.03;1.48;;;;;;;;;;10338861;28;20079;-78
2022/05/11 15:59:50;;;;;;;4.35;2.10;;;;;;;;;;10358625;28;20065;-77
2022/05/11 16:04:54;;;;;;;3.72;1.85;;;;;;;;;;10365417;28;20033;-75
2022/05/11 16:09:57;;;;;;;4.72;2.08;;;;;;;;;;10365950;28;20037;-76
2022/05/11 16:15:00;;;;;;;5.82;2.25;;;;;;;;;;10349521;28;20533;-78
2022/05/11 16:20:04;;;;;;;3.10;1.80;;;;;;;;;;10363894;28;20049;-77
2022/05/11 16:25:08;;;;;;;2.67;1.70;;;;;;;;;;10349041;28;20050;-77
2022/05/11 16:30:11;;;;;;;4.32;1.77;;;;;;;;;;10364596;28;20107;-76
2022/05/11 16:35:17;;;;;;;4.03;1.90;;;;;;;;;;10359326;28;20128;-77
2022/05/11 16:40:21;;;;;;;3.85;2.05;;;;;;;;;;10345094;28;20124;-76
2022/05/11 16:45:24;;;;;;;6.20;1.73;;;;;;;;;;10362679;28;20273;-77
2022/05/11 16:50:28;;;;;;;2.33;1.65;;;;;;;;;;10348785;28;20061;-77
2022/05/11 16:55:31;;;;;;;5.50;1.92;;;;;;;;;;10363164;28;20042;-75
2022/05/11 17:00:34;;;;;;;2.33;1.50;;;;;;;;;;10375378;28;20410;-75
2022/05/11 17:05:44;;;;;;;5.07;1.77;;;;;;;;;;10366876;28;20033;-76
2022/05/11 17:10:47;;;;;;;2.85;1.98;;;;;;;;;;10360591;28;20072;-77
2022/05/11 17:15:54;;;;;;;3.33;1.88;;;;;;;;;;10359638;28;20033;-77
2022/05/11 17:20:59;;;;;;;3.90;1.90;;;;;;;;;;10353808;28;20056;-74
2022/05/11 17:26:03;;;;;;;6.22;2.67;;;;;;;;;;10355835;28;20034;-75
2022/05/11 17:31:05;;;;;;;6.22;2.83;;;;;;;;;;10339542;28;20030;-74
2022/05/11 17:36:08;;;;;;;;;;;;;;;;;;10337114;28;20052;-73
2022/05/11 17:41:12;;;;;;;2.23;1.50;;;;;;;;;;10363625;28;19988;-75
2022/05/11 17:46:16;;;;;;;5.75;2.72;;;;;;;;;;10356892;28;20065;-75
2022/05/11 17:51:20;;;;;;;4.82;2.25;;;;;;;;;;10348222;28;20046;-76
2022/05/11 17:56:24;;;;;;;5.07;2.00;;;;;;;;;;10357491;28;20037;-72
2022/05/11 18:01:27;;;;;;;3.28;1.80;;;;;;;;;;10359337;28;20041;-73
2022/05/11 18:06:30;;;;;;;7.97;2.97;;;;;;;;;;10362590;28;20038;-75
2022/05/11 18:11:34;;;;;;;8.75;4.28;;;;;;;;;;10357101;28;20274;-73
2022/05/11 18:16:37;;;;;;;4.30;2.40;;;;;;;;;;10356403;28;20113;-74
2022/05/11 18:21:40;;;;;;;6.45;3.45;;;;;;;;;;10363872;28;20056;-75
2022/05/11 18:26:45;;;;;;;4.72;2.70;;;;;;;;;;10355259;28;20041;-74
2022/05/11 18:31:48;;;;;;;3.90;2.15;;;;;;;;;;10340534;28;20510;-74
2022/05/11 18:36:51;;;;;;;7.72;3.05;;;;;;;;;;10357383;28;20050;-74
2022/05/11 18:41:56;;;;;;;6.93;3.17;;;;;;;;;;10355617;28;20057;-75
2022/05/11 18:46:58;;;;;;;8.20;3.35;;;;;;;;;;10337526;28;20426;-74
2022/05/11 18:52:03;;;;;;;5.60;2.78;;;;;;;;;;10350566;28;20048;-74
2022/05/11 18:57:10;;;;;;;5.43;2.60;;;;;;;;;;10363413;28;20084;-75
2022/05/11 19:02:13;;;;;;;4.45;2.40;;;;;;;;;;10352003;28;20442;-76
2022/05/11 19:07:16;;;;;;;2.28;1.48;;;;;;;;;;10366889;28;20040;-76
2022/05/11 19:12:20;;;;;;;5.10;2.90;;;;;;;;;;10356055;28;20070;-76
2022/05/11 19:17:23;;;;;;;10.80;3.70;;;;;;;;;;10355613;28;20034;-82
2022/05/11 19:22:26;;;;;;;4.95;2.33;;;;;;;;;;10357692;28;20131;-78
2022/05/11 19:27:31;;;;;;;4.60;2.60;;;;;;;;;;10350041;28;20511;-80
2022/05/11 19:32:34;;;;;;;5.53;2.65;;;;;;;;;;10354259;28;20046;-76
2022/05/11 19:37:36;;;;;;;;;;;;;;;;;;10342573;28;20042;-78
2022/05/11 19:42:41;;;;;;;4.97;2.70;;;;;;;;;;10337576;28;19952;-75
2022/05/11 19:47:44;;;;;;;4.10;2.40;;;;;;;;;;10341268;28;20390;-78
2022/05/11 19:52:48;;;;;;;7.93;3.10;;;;;;;;;;10353564;28;20463;-78
2022/05/11 19:58:01;;;;;;;6.72;2.85;;;;;;;;;;10363132;28;20104;-79
2022/05/11 20:03:04;;;;;;;7.43;3.00;;;;;;;;;;10349148;28;20375;-81
2022/05/11 20:08:09;;;;;;;5.75;2.75;;;;;;;;;;10359773;28;20078;-78
2022/05/11 20:13:14;;;;;;;7.35;2.90;;;;;;;;;;10367549;28;20101;-78
2022/05/11 20:18:17;;;;;;;5.50;2.72;;;;;;;;;;10350795;28;20070;-80
2022/05/11 20:23:20;;;;;;;4.00;2.05;;;;;;;;;;10349953;28;20034;-79
2022/05/11 20:28:24;;;;;;;5.35;3.13;;;;;;;;;;10361221;28;20041;-78
2022/05/11 20:38:47;;;;;;;5.60;2.75;;;;;;;;;;10336926;28;20042;-78
2022/05/11 20:43:52;;;;;;;5.22;2.65;;;;;;;;;;10347060;28;20068;-78
2022/05/11 20:48:54;;;;;;;5.85;2.88;;;;;;;;;;10356797;28;20169;-78
2022/05/11 20:53:58;;;;;;;6.50;2.88;;;;;;;;;;10350369;28;20401;-77
2022/05/11 20:59:02;;;;;;;7.10;3.30;;;;;;;;;;10363658;28;20092;-77
2022/05/11 21:04:05;;;;;;;5.65;3.22;;;;;;;;;;10365968;28;20510;-77
2022/05/11 21:09:08;;;;;;;7.88;3.05;;;;;;;;;;10338724;28;20034;-79
2022/05/11 21:14:13;;;;;;;5.65;2.60;;;;;;;;;;10348074;28;20189;-77
2022/05/11 21:19:16;;;;;;;4.22;2.72;;;;;;;;;;10343847;28;20042;-77
2022/05/11 21:24:18;;;;;;;4.88;3.20;;;;;;;;;;10349941;28;20112;-77
2022/05/11 21:29:21;;;;;;;;;;;;;;;;;;10354091;28;20042;-79
2022/05/11 21:34:27;;;;;;;4.95;2.85;;;;;;;;;;10354972;28;20023;-79
2022/05/11 21:39:29;;;;;;;4.63;2.42;;;;;;;;;;10348235;28;20133;-79
2022/05/11 21:44:32;;;;;;;7.20;2.70;;;;;;;;;;10360147;28;20037;-81
2022/05/11 21:49:36;;;;;;;5.80;2.38;;;;;;;;;;10349509;28;20359;-77
2022/05/11 21:54:39;;;;;;;4.80;2.95;;;;;;;;;;10366918;28;20045;-78
2022/05/11 21:59:42;;;;;;;6.65;2.63;;;;;;;;;;10358028;28;20052;-79
2022/05/11 22:04:46;;;;;;;5.70;3.42;;;;;;;;;;10349199;28;20069;-79
2022/05/11 22:09:49;;;;;;;7.47;3.45;;;;;;;;;;10346536;28;20080;-77
2022/05/11 22:14:52;;;;;;;8.38;3.50;;;;;;;;;;10360433;28;20441;-79
2022/05/11 22:19:56;;;;;;;5.70;3.33;;;;;;;;;;10362822;28;20113;-79
2022/05/11 22:25:13;;;;;;;2.72;2.08;;;;;;;;;;10359722;28;20116;-80
2022/05/11 22:30:18;;;;;;;6.53;2.90;;;;;;;;;;10355678;28;20037;-80
2022/05/11 22:35:22;;;;;;;4.80;2.88;;;;;;;;;;10357523;28;20056;-78
2022/05/11 22:40:25;;;;;;;6.38;2.80;;;;;;;;;;10343230;28;20065;-78
2022/05/11 22:45:28;;;;;;;7.22;3.25;;;;;;;;;;10367778;28;20091;-77
2022/05/11 22:50:33;;;;;;;3.70;2.65;;;;;;;;;;10358038;28;20046;-76
2022/05/11 22:55:36;;;;;;;5.38;3.03;;;;;;;;;;10345380;28;20062;-77
2022/05/11 23:00:39;;;;;;;7.82;3.30;;;;;;;;;;10359631;28;20462;-76
2022/05/11 23:05:44;;;;;;;5.15;2.97;;;;;;;;;;10364257;28;20461;-78
2022/05/11 23:10:47;;;;;;;6.75;3.60;;;;;;;;;;10353192;28;20053;-78
2022/05/11 23:15:51;;;;;;;;;;;;;;;;;;10359020;28;20052;-76
2022/05/11 23:20:55;;;;;;;3.83;2.88;;;;;;;;;;10358561;28;19960;-78
2022/05/11 23:25:59;;;;;;;7.15;3.60;;;;;;;;;;10352365;28;20477;-78
2022/05/11 23:31:02;;;;;;;5.32;3.50;;;;;;;;;;10360602;28;20561;-78
2022/05/11 23:36:06;;;;;;;5.07;2.72;;;;;;;;;;10340433;28;20533;-78
2022/05/11 23:41:09;;;;;;;8.02;3.58;;;;;;;;;;10365557;28;20092;-80
2022/05/11 23:46:12;;;;;;;7.53;3.65;;;;;;;;;;10363807;28;20033;-79
2022/05/11 23:51:17;;;;;;;6.18;2.72;;;;;;;;;;10337289;28;20096;-78
2022/05/11 23:56:20;;;;;;;6.53;3.55;;;;;;;;;;10357902;28;20451;-79
